sensor_id;sensor_type;location;lat;lon;timestamp;temperature;humidity
6210;DHT22;3138;52.550;13.148;2023-04-06T00:00:24;0.60;1.00
6210;DHT22;3138;52.550;13.148;2023-04-06T00:02:50;0.50;1.00
6210;DHT22;3138;52.550;13.148;2023-04-06T00:05:18;0.40;1.00
6210;DHT22;3138;52.550;13.148;2023-04-06T00:07:45;0.40;1.00
6210;DHT22;3138;52.550;13.148;2023-04-06T00:10:12;0.30;1.00
6210;DHT22;3138;52.550;13.148;2023-04-06T00:12:39;0.30;1.00
6210;DHT22;3138;52.550;13.148;2023-04-06T00:15:06;0.20;1.00
6210;DHT22;3138;52.550;13.148;2023-04-06T00:17:35;0.10;1.00
6210;DHT22;3138;52.550;13.148;2023-04-06T00:20:02;0.10;1.00
6210;DHT22;3138;52.550;13.148;2023-04-06T00:22:29;0.00;1.00
6210;DHT22;3138;52.550;13.148;2023-04-06T00:24:56;0.00;18.20
6210;DHT22;3138;52.550;13.148;2023-04-06T00:27:23;-0.10;4.40
6210;DHT22;3138;52.550;13.148;2023-04-06T00:29:50;-0.20;1.00
6210;DHT22;3138;52.550;13.148;2023-04-06T00:32:17;-0.20;1.00
6210;DHT22;3138;52.550;13.148;2023-04-06T00:34:45;-0.20;1.00
6210;DHT22;3138;52.550;13.148;2023-04-06T00:37:12;-0.30;7.20
6210;DHT22;3138;52.550;13.148;2023-04-06T00:39:39;-0.40;16.40
6210;DHT22;3138;52.550;13.148;2023-04-06T00:42:11;-0.50;1.00
6210;DHT22;3138;52.550;13.148;2023-04-06T00:44:39;-0.50;1.00
6210;DHT22;3138;52.550;13.148;2023-04-06T00:47:06;-0.50;1.00
6210;DHT22;3138;52.550;13.148;2023-04-06T00:49:33;-0.70;1.00
6210;DHT22;3138;52.550;13.148;2023-04-06T00:52:02;-0.70;1.00
6210;DHT22;3138;52.550;13.148;2023-04-06T00:54:29;-0.70;1.00
6210;DHT22;3138;52.550;13.148;2023-04-06T00:56:57;-0.70;1.00
6210;DHT22;3138;52.550;13.148;2023-04-06T00:59:24;-0.70;1.00
6210;DHT22;3138;52.550;13.148;2023-04-06T01:01:51;-0.70;1.00
6210;DHT22;3138;52.550;13.148;2023-04-06T01:04:18;-0.80;1.00
6210;DHT22;3138;52.550;13.148;2023-04-06T01:06:47;-0.80;1.00
6210;DHT22;3138;52.550;13.148;2023-04-06T01:09:16;-0.90;46.40
6210;DHT22;3138;52.550;13.148;2023-04-06T01:11:43;-1.00;97.10
6210;DHT22;3138;52.550;13.148;2023-04-06T01:14:11;-1.00;95.60
6210;DHT22;3138;52.550;13.148;2023-04-06T01:16:38;-1.00;36.60
6210;DHT22;3138;52.550;13.148;2023-04-06T01:19:08;-1.10;51.20
6210;DHT22;3138;52.550;13.148;2023-04-06T01:21:35;-1.10;99.90
6210;DHT22;3138;52.550;13.148;2023-04-06T01:24:04;-1.20;99.90
6210;DHT22;3138;52.550;13.148;2023-04-06T01:26:32;-1.20;99.90
6210;DHT22;3138;52.550;13.148;2023-04-06T01:28:59;-1.20;99.90
6210;DHT22;3138;52.550;13.148;2023-04-06T01:31:26;-1.20;99.90
6210;DHT22;3138;52.550;13.148;2023-04-06T01:33:53;-1.30;99.90
6210;DHT22;3138;52.550;13.148;2023-04-06T01:36:21;-1.30;91.70
6210;DHT22;3138;52.550;13.148;2023-04-06T01:38:48;-1.40;78.90
6210;DHT22;3138;52.550;13.148;2023-04-06T01:41:16;-1.50;99.90
6210;DHT22;3138;52.550;13.148;2023-04-06T01:43:44;-1.50;99.90
6210;DHT22;3138;52.550;13.148;2023-04-06T01:46:14;-1.60;99.90
6210;DHT22;3138;52.550;13.148;2023-04-06T01:48:41;-1.60;99.90
6210;DHT22;3138;52.550;13.148;2023-04-06T01:51:07;-1.60;99.90
6210;DHT22;3138;52.550;13.148;2023-04-06T01:53:34;-1.60;1.00
6210;DHT22;3138;52.550;13.148;2023-04-06T01:56:01;-1.70;1.00
6210;DHT22;3138;52.550;13.148;2023-04-06T01:58:30;-1.70;1.00
6210;DHT22;3138;52.550;13.148;2023-04-06T02:00:56;-1.80;1.00
6210;DHT22;3138;52.550;13.148;2023-04-06T02:03:23;-1.80;1.00
6210;DHT22;3138;52.550;13.148;2023-04-06T02:05:50;-2.00;1.00
6210;DHT22;3138;52.550;13.148;2023-04-06T02:08:17;-1.90;1.00
6210;DHT22;3138;52.550;13.148;2023-04-06T02:10:44;-1.90;1.00
6210;DHT22;3138;52.550;13.148;2023-04-06T02:13:11;-1.90;1.00
6210;DHT22;3138;52.550;13.148;2023-04-06T02:15:39;-1.90;1.00
6210;DHT22;3138;52.550;13.148;2023-04-06T02:18:06;-2.00;1.00
6210;DHT22;3138;52.550;13.148;2023-04-06T02:20:33;-2.00;99.90
6210;DHT22;3138;52.550;13.148;2023-04-06T02:23:00;-2.10;99.90
6210;DHT22;3138;52.550;13.148;2023-04-06T02:25:27;-2.20;99.90
6210;DHT22;3138;52.550;13.148;2023-04-06T02:27:54;-2.20;1.00
6210;DHT22;3138;52.550;13.148;2023-04-06T02:30:21;-2.30;1.00
6210;DHT22;3138;52.550;13.148;2023-04-06T02:32:49;-2.30;1.00
6210;DHT22;3138;52.550;13.148;2023-04-06T02:35:16;-2.30;1.00
6210;DHT22;3138;52.550;13.148;2023-04-06T02:37:43;-2.20;1.00
6210;DHT22;3138;52.550;13.148;2023-04-06T02:40:10;-2.30;1.00
6210;DHT22;3138;52.550;13.148;2023-04-06T02:42:37;-2.40;1.00
6210;DHT22;3138;52.550;13.148;2023-04-06T02:45:05;-2.50;1.00
6210;DHT22;3138;52.550;13.148;2023-04-06T02:47:33;-2.50;1.00
6210;DHT22;3138;52.550;13.148;2023-04-06T02:50:01;-2.40;1.00
6210;DHT22;3138;52.550;13.148;2023-04-06T02:52:28;-2.40;1.00
6210;DHT22;3138;52.550;13.148;2023-04-06T02:54:55;-2.40;1.00
6210;DHT22;3138;52.550;13.148;2023-04-06T02:57:22;-2.50;1.00
6210;DHT22;3138;52.550;13.148;2023-04-06T02:59:49;-2.50;1.00
6210;DHT22;3138;52.550;13.148;2023-04-06T03:02:16;-2.50;1.00
6210;DHT22;3138;52.550;13.148;2023-04-06T03:04:43;-2.60;1.00
6210;DHT22;3138;52.550;13.148;2023-04-06T03:07:12;-2.60;1.00
6210;DHT22;3138;52.550;13.148;2023-04-06T03:09:38;-2.60;1.00
6210;DHT22;3138;52.550;13.148;2023-04-06T03:12:06;-2.60;1.00
6210;DHT22;3138;52.550;13.148;2023-04-06T03:14:33;-2.50;24.90
6210;DHT22;3138;52.550;13.148;2023-04-06T03:17:00;-2.60;50.90
6210;DHT22;3138;52.550;13.148;2023-04-06T03:19:27;-2.60;99.90
6210;DHT22;3138;52.550;13.148;2023-04-06T03:21:54;-2.70;99.90
6210;DHT22;3138;52.550;13.148;2023-04-06T03:24:24;-2.70;99.90
6210;DHT22;3138;52.550;13.148;2023-04-06T03:26:51;-2.70;99.90
6210;DHT22;3138;52.550;13.148;2023-04-06T03:29:18;-2.80;99.90
6210;DHT22;3138;52.550;13.148;2023-04-06T03:31:45;-2.70;1.00
6210;DHT22;3138;52.550;13.148;2023-04-06T03:34:12;-2.70;1.00
6210;DHT22;3138;52.550;13.148;2023-04-06T03:36:39;-2.70;1.00
6210;DHT22;3138;52.550;13.148;2023-04-06T03:39:06;-2.80;1.00
6210;DHT22;3138;52.550;13.148;2023-04-06T03:41:34;-2.80;1.00
6210;DHT22;3138;52.550;13.148;2023-04-06T03:44:01;-2.70;1.00
6210;DHT22;3138;52.550;13.148;2023-04-06T03:46:28;-2.80;1.00
6210;DHT22;3138;52.550;13.148;2023-04-06T03:48:55;-2.80;1.00
6210;DHT22;3138;52.550;13.148;2023-04-06T03:51:22;-2.80;1.00
6210;DHT22;3138;52.550;13.148;2023-04-06T03:53:49;-2.90;1.00
6210;DHT22;3138;52.550;13.148;2023-04-06T03:56:16;-3.00;1.00
6210;DHT22;3138;52.550;13.148;2023-04-06T03:58:44;-2.90;1.00
6210;DHT22;3138;52.550;13.148;2023-04-06T04:01:16;-2.90;1.00
6210;DHT22;3138;52.550;13.148;2023-04-06T04:03:45;-3.00;1.00
6210;DHT22;3138;52.550;13.148;2023-04-06T04:06:11;-3.00;1.00
6210;DHT22;3138;52.550;13.148;2023-04-06T04:08:38;-3.10;1.00
6210;DHT22;3138;52.550;13.148;2023-04-06T04:11:05;-3.10;1.00
6210;DHT22;3138;52.550;13.148;2023-04-06T04:13:32;-3.20;1.00
6210;DHT22;3138;52.550;13.148;2023-04-06T04:16:00;-3.10;1.00
6210;DHT22;3138;52.550;13.148;2023-04-06T04:18:27;-3.10;1.00
6210;DHT22;3138;52.550;13.148;2023-04-06T04:20:54;-3.10;1.00
6210;DHT22;3138;52.550;13.148;2023-04-06T04:23:21;-3.20;1.00
6210;DHT22;3138;52.550;13.148;2023-04-06T04:25:48;-3.10;1.00
6210;DHT22;3138;52.550;13.148;2023-04-06T04:28:16;-3.10;1.00
6210;DHT22;3138;52.550;13.148;2023-04-06T04:30:43;-3.20;1.00
6210;DHT22;3138;52.550;13.148;2023-04-06T04:33:12;-3.20;1.00
6210;DHT22;3138;52.550;13.148;2023-04-06T04:35:38;-3.10;1.00
6210;DHT22;3138;52.550;13.148;2023-04-06T04:38:05;-3.10;99.90
6210;DHT22;3138;52.550;13.148;2023-04-06T04:40:35;-3.10;99.90
6210;DHT22;3138;52.550;13.148;2023-04-06T04:43:02;-3.20;99.90
6210;DHT22;3138;52.550;13.148;2023-04-06T04:45:29;-3.10;99.90
6210;DHT22;3138;52.550;13.148;2023-04-06T04:47:56;-3.20;99.90
6210;DHT22;3138;52.550;13.148;2023-04-06T04:50:25;-3.10;1.00
6210;DHT22;3138;52.550;13.148;2023-04-06T04:52:52;-3.00;1.00
6210;DHT22;3138;52.550;13.148;2023-04-06T04:55:19;-2.80;1.00
6210;DHT22;3138;52.550;13.148;2023-04-06T04:57:46;-3.00;1.00
6210;DHT22;3138;52.550;13.148;2023-04-06T05:00:14;-2.90;1.00
6210;DHT22;3138;52.550;13.148;2023-04-06T05:02:41;-2.70;1.00
6210;DHT22;3138;52.550;13.148;2023-04-06T05:05:08;-2.70;1.00
6210;DHT22;3138;52.550;13.148;2023-04-06T05:07:36;-2.60;1.00
6210;DHT22;3138;52.550;13.148;2023-04-06T05:10:04;-2.50;1.00
6210;DHT22;3138;52.550;13.148;2023-04-06T05:12:31;-2.50;1.00
6210;DHT22;3138;52.550;13.148;2023-04-06T05:14:58;-2.40;1.00
6210;DHT22;3138;52.550;13.148;2023-04-06T05:17:25;-2.30;1.00
6210;DHT22;3138;52.550;13.148;2023-04-06T05:19:52;-2.10;1.00
6210;DHT22;3138;52.550;13.148;2023-04-06T05:22:19;-2.10;1.00
6210;DHT22;3138;52.550;13.148;2023-04-06T05:24:47;-1.90;1.00
6210;DHT22;3138;52.550;13.148;2023-04-06T05:27:14;-1.80;99.90
6210;DHT22;3138;52.550;13.148;2023-04-06T05:29:41;-1.60;99.90
6210;DHT22;3138;52.550;13.148;2023-04-06T05:32:08;-1.40;99.90
6210;DHT22;3138;52.550;13.148;2023-04-06T05:34:41;-1.10;99.90
6210;DHT22;3138;52.550;13.148;2023-04-06T05:37:08;-0.90;99.90
6210;DHT22;3138;52.550;13.148;2023-04-06T05:39:35;-0.70;99.90
6210;DHT22;3138;52.550;13.148;2023-04-06T05:42:05;-0.50;59.60
6210;DHT22;3138;52.550;13.148;2023-04-06T05:44:32;-0.10;47.50
6210;DHT22;3138;52.550;13.148;2023-04-06T05:46:59;0.20;4.30
6210;DHT22;3138;52.550;13.148;2023-04-06T05:49:26;0.60;1.00
6210;DHT22;3138;52.550;13.148;2023-04-06T05:51:53;0.80;1.00
6210;DHT22;3138;52.550;13.148;2023-04-06T05:54:20;1.00;1.00
6210;DHT22;3138;52.550;13.148;2023-04-06T05:56:47;1.30;1.00
6210;DHT22;3138;52.550;13.148;2023-04-06T05:59:15;1.50;99.90
6210;DHT22;3138;52.550;13.148;2023-04-06T06:01:42;1.70;99.90
6210;DHT22;3138;52.550;13.148;2023-04-06T06:04:09;2.00;99.90
6210;DHT22;3138;52.550;13.148;2023-04-06T06:06:36;2.20;99.90
6210;DHT22;3138;52.550;13.148;2023-04-06T06:09:03;2.30;99.90
6210;DHT22;3138;52.550;13.148;2023-04-06T06:11:30;2.60;99.90
6210;DHT22;3138;52.550;13.148;2023-04-06T06:13:58;2.80;65.20
6210;DHT22;3138;52.550;13.148;2023-04-06T06:16:27;3.00;1.00
6210;DHT22;3138;52.550;13.148;2023-04-06T06:18:53;3.00;1.00
6210;DHT22;3138;52.550;13.148;2023-04-06T06:21:21;3.30;1.00
6210;DHT22;3138;52.550;13.148;2023-04-06T06:23:47;3.50;1.00
6210;DHT22;3138;52.550;13.148;2023-04-06T06:26:16;3.60;1.00
6210;DHT22;3138;52.550;13.148;2023-04-06T06:28:43;3.70;1.00
6210;DHT22;3138;52.550;13.148;2023-04-06T06:31:10;3.80;1.00
6210;DHT22;3138;52.550;13.148;2023-04-06T06:33:39;4.00;1.00
6210;DHT22;3138;52.550;13.148;2023-04-06T06:36:06;4.10;1.00
6210;DHT22;3138;52.550;13.148;2023-04-06T06:38:33;4.30;1.00
6210;DHT22;3138;52.550;13.148;2023-04-06T06:41:00;4.40;1.00
6210;DHT22;3138;52.550;13.148;2023-04-06T06:43:28;4.60;1.00
6210;DHT22;3138;52.550;13.148;2023-04-06T06:45:55;4.70;1.00
6210;DHT22;3138;52.550;13.148;2023-04-06T06:48:22;5.00;1.00
6210;DHT22;3138;52.550;13.148;2023-04-06T06:50:50;5.00;99.90
6210;DHT22;3138;52.550;13.148;2023-04-06T06:53:17;5.20;99.90
6210;DHT22;3138;52.550;13.148;2023-04-06T06:55:44;5.20;99.90
6210;DHT22;3138;52.550;13.148;2023-04-06T06:58:11;5.60;99.90
6210;DHT22;3138;52.550;13.148;2023-04-06T07:00:38;5.60;99.90
6210;DHT22;3138;52.550;13.148;2023-04-06T07:03:05;5.70;99.90
6210;DHT22;3138;52.550;13.148;2023-04-06T07:05:32;5.70;99.90
6210;DHT22;3138;52.550;13.148;2023-04-06T07:08:01;5.90;99.90
6210;DHT22;3138;52.550;13.148;2023-04-06T07:10:28;5.90;99.90
6210;DHT22;3138;52.550;13.148;2023-04-06T07:12:55;6.00;99.90
6210;DHT22;3138;52.550;13.148;2023-04-06T07:15:22;6.20;99.90
6210;DHT22;3138;52.550;13.148;2023-04-06T07:17:49;6.50;99.90
6210;DHT22;3138;52.550;13.148;2023-04-06T07:20:17;6.80;99.90
6210;DHT22;3138;52.550;13.148;2023-04-06T07:22:44;6.90;96.60
6210;DHT22;3138;52.550;13.148;2023-04-06T07:25:13;6.70;54.30
6210;DHT22;3138;52.550;13.148;2023-04-06T07:27:40;6.90;48.70
6210;DHT22;3138;52.550;13.148;2023-04-06T07:30:08;7.20;27.70
6210;DHT22;3138;52.550;13.148;2023-04-06T07:32:35;7.20;6.60
6210;DHT22;3138;52.550;13.148;2023-04-06T07:35:02;7.20;1.00
6210;DHT22;3138;52.550;13.148;2023-04-06T07:37:29;7.30;1.00
6210;DHT22;3138;52.550;13.148;2023-04-06T07:39:56;7.30;1.00
6210;DHT22;3138;52.550;13.148;2023-04-06T07:42:25;7.50;1.00
6210;DHT22;3138;52.550;13.148;2023-04-06T07:44:51;7.60;1.00
6210;DHT22;3138;52.550;13.148;2023-04-06T07:47:18;7.80;1.00
6210;DHT22;3138;52.550;13.148;2023-04-06T07:49:45;8.20;1.00
6210;DHT22;3138;52.550;13.148;2023-04-06T07:52:13;8.50;1.00
6210;DHT22;3138;52.550;13.148;2023-04-06T07:54:40;8.70;1.00
6210;DHT22;3138;52.550;13.148;2023-04-06T07:57:07;8.90;1.00
6210;DHT22;3138;52.550;13.148;2023-04-06T07:59:36;8.90;1.00
6210;DHT22;3138;52.550;13.148;2023-04-06T08:02:03;8.90;1.00
6210;DHT22;3138;52.550;13.148;2023-04-06T08:04:30;9.20;1.00
6210;DHT22;3138;52.550;13.148;2023-04-06T08:06:57;9.30;1.00
6210;DHT22;3138;52.550;13.148;2023-04-06T08:09:25;9.40;1.00
6210;DHT22;3138;52.550;13.148;2023-04-06T08:11:52;9.60;1.00
6210;DHT22;3138;52.550;13.148;2023-04-06T08:14:19;9.50;1.00
6210;DHT22;3138;52.550;13.148;2023-04-06T08:16:48;9.60;1.00
6210;DHT22;3138;52.550;13.148;2023-04-06T08:19:15;9.70;1.00
6210;DHT22;3138;52.550;13.148;2023-04-06T08:21:42;9.30;1.00
6210;DHT22;3138;52.550;13.148;2023-04-06T08:24:09;9.30;1.00
6210;DHT22;3138;52.550;13.148;2023-04-06T08:26:36;9.60;1.00
6210;DHT22;3138;52.550;13.148;2023-04-06T08:29:03;9.70;1.00
6210;DHT22;3138;52.550;13.148;2023-04-06T08:31:33;10.00;1.00
6210;DHT22;3138;52.550;13.148;2023-04-06T08:34:01;10.20;1.00
6210;DHT22;3138;52.550;13.148;2023-04-06T08:36:28;10.10;1.00
6210;DHT22;3138;52.550;13.148;2023-04-06T08:38:56;10.10;1.00
6210;DHT22;3138;52.550;13.148;2023-04-06T08:41:23;10.00;1.00
6210;DHT22;3138;52.550;13.148;2023-04-06T08:43:56;10.00;1.00
6210;DHT22;3138;52.550;13.148;2023-04-06T08:46:24;10.20;1.00
6210;DHT22;3138;52.550;13.148;2023-04-06T08:48:55;10.30;1.00
6210;DHT22;3138;52.550;13.148;2023-04-06T08:51:24;10.40;1.00
6210;DHT22;3138;52.550;13.148;2023-04-06T08:53:53;10.60;1.00
6210;DHT22;3138;52.550;13.148;2023-04-06T08:56:21;10.60;1.00
6210;DHT22;3138;52.550;13.148;2023-04-06T08:58:49;10.70;1.00
6210;DHT22;3138;52.550;13.148;2023-04-06T09:01:20;10.80;1.00
6210;DHT22;3138;52.550;13.148;2023-04-06T09:03:49;10.80;1.00
6210;DHT22;3138;52.550;13.148;2023-04-06T09:06:16;10.60;1.00
6210;DHT22;3138;52.550;13.148;2023-04-06T09:08:45;10.70;1.00
6210;DHT22;3138;52.550;13.148;2023-04-06T09:11:11;10.40;1.00
6210;DHT22;3138;52.550;13.148;2023-04-06T09:13:46;10.60;1.00
6210;DHT22;3138;52.550;13.148;2023-04-06T09:16:13;10.60;1.00
6210;DHT22;3138;52.550;13.148;2023-04-06T09:18:41;10.80;1.00
6210;DHT22;3138;52.550;13.148;2023-04-06T09:21:08;11.00;1.00
6210;DHT22;3138;52.550;13.148;2023-04-06T09:23:35;10.60;1.00
6210;DHT22;3138;52.550;13.148;2023-04-06T09:26:12;10.70;1.00
6210;DHT22;3138;52.550;13.148;2023-04-06T09:28:43;10.40;1.00
6210;DHT22;3138;52.550;13.148;2023-04-06T09:31:11;10.20;1.00
6210;DHT22;3138;52.550;13.148;2023-04-06T09:33:38;10.20;1.00
6210;DHT22;3138;52.550;13.148;2023-04-06T09:36:06;10.70;1.00
6210;DHT22;3138;52.550;13.148;2023-04-06T09:38:36;10.90;1.00
6210;DHT22;3138;52.550;13.148;2023-04-06T09:41:03;11.00;1.00
6210;DHT22;3138;52.550;13.148;2023-04-06T09:43:31;11.40;1.00
6210;DHT22;3138;52.550;13.148;2023-04-06T09:46:00;11.20;1.00
6210;DHT22;3138;52.550;13.148;2023-04-06T09:48:30;11.60;1.00
6210;DHT22;3138;52.550;13.148;2023-04-06T09:51:03;10.70;99.90
6210;DHT22;3138;52.550;13.148;2023-04-06T09:53:31;10.80;99.90
6210;DHT22;3138;52.550;13.148;2023-04-06T09:56:03;10.90;99.90
6210;DHT22;3138;52.550;13.148;2023-04-06T09:58:37;11.10;99.90
6210;DHT22;3138;52.550;13.148;2023-04-06T10:01:12;11.00;99.90
6210;DHT22;3138;52.550;13.148;2023-04-06T10:03:45;10.80;99.90
6210;DHT22;3138;52.550;13.148;2023-04-06T10:06:15;11.50;99.90
6210;DHT22;3138;52.550;13.148;2023-04-06T10:08:45;11.70;99.90
6210;DHT22;3138;52.550;13.148;2023-04-06T10:11:15;12.00;99.90
6210;DHT22;3138;52.550;13.148;2023-04-06T10:13:44;12.30;99.90
6210;DHT22;3138;52.550;13.148;2023-04-06T10:16:13;11.90;99.90
6210;DHT22;3138;52.550;13.148;2023-04-06T10:18:44;11.40;99.90
6210;DHT22;3138;52.550;13.148;2023-04-06T10:21:18;11.70;99.90
6210;DHT22;3138;52.550;13.148;2023-04-06T10:23:48;11.90;99.90
6210;DHT22;3138;52.550;13.148;2023-04-06T10:26:17;12.30;99.90
6210;DHT22;3138;52.550;13.148;2023-04-06T10:28:46;11.80;99.90
6210;DHT22;3138;52.550;13.148;2023-04-06T10:31:14;12.30;99.90
6210;DHT22;3138;52.550;13.148;2023-04-06T10:33:41;12.30;99.90
6210;DHT22;3138;52.550;13.148;2023-04-06T10:36:23;12.40;99.90
6210;DHT22;3138;52.550;13.148;2023-04-06T10:38:54;11.50;99.90
6210;DHT22;3138;52.550;13.148;2023-04-06T10:41:22;11.20;99.90
6210;DHT22;3138;52.550;13.148;2023-04-06T10:43:57;11.60;99.90
6210;DHT22;3138;52.550;13.148;2023-04-06T10:46:28;12.30;99.90
6210;DHT22;3138;52.550;13.148;2023-04-06T10:48:55;12.30;99.90
6210;DHT22;3138;52.550;13.148;2023-04-06T10:51:25;12.30;99.90
6210;DHT22;3138;52.550;13.148;2023-04-06T10:53:54;12.40;99.90
6210;DHT22;3138;52.550;13.148;2023-04-06T10:56:23;12.80;99.90
6210;DHT22;3138;52.550;13.148;2023-04-06T10:58:54;12.70;99.90
6210;DHT22;3138;52.550;13.148;2023-04-06T11:01:24;12.70;99.90
6210;DHT22;3138;52.550;13.148;2023-04-06T11:03:53;12.80;99.90
6210;DHT22;3138;52.550;13.148;2023-04-06T11:06:21;12.90;99.90
6210;DHT22;3138;52.550;13.148;2023-04-06T11:08:49;12.80;99.90
6210;DHT22;3138;52.550;13.148;2023-04-06T11:11:17;12.90;99.90
6210;DHT22;3138;52.550;13.148;2023-04-06T11:13:46;13.20;99.90
6210;DHT22;3138;52.550;13.148;2023-04-06T11:16:15;12.30;99.90
6210;DHT22;3138;52.550;13.148;2023-04-06T11:18:51;12.30;99.90
6210;DHT22;3138;52.550;13.148;2023-04-06T11:21:19;12.20;99.90
6210;DHT22;3138;52.550;13.148;2023-04-06T11:23:46;12.50;99.90
6210;DHT22;3138;52.550;13.148;2023-04-06T11:26:14;12.60;99.90
6210;DHT22;3138;52.550;13.148;2023-04-06T11:28:41;12.40;99.90
6210;DHT22;3138;52.550;13.148;2023-04-06T11:31:09;12.30;99.90
6210;DHT22;3138;52.550;13.148;2023-04-06T11:33:36;12.10;99.90
6210;DHT22;3138;52.550;13.148;2023-04-06T11:36:06;11.90;99.90
6210;DHT22;3138;52.550;13.148;2023-04-06T11:38:33;12.20;99.90
6210;DHT22;3138;52.550;13.148;2023-04-06T11:41:01;12.40;99.90
6210;DHT22;3138;52.550;13.148;2023-04-06T11:43:29;12.30;99.90
6210;DHT22;3138;52.550;13.148;2023-04-06T11:46:00;12.30;99.90
6210;DHT22;3138;52.550;13.148;2023-04-06T11:48:28;12.40;99.90
6210;DHT22;3138;52.550;13.148;2023-04-06T11:50:56;12.60;99.90
6210;DHT22;3138;52.550;13.148;2023-04-06T11:53:25;12.50;99.90
6210;DHT22;3138;52.550;13.148;2023-04-06T11:55:52;12.50;99.90
6210;DHT22;3138;52.550;13.148;2023-04-06T11:58:19;12.60;99.90
6210;DHT22;3138;52.550;13.148;2023-04-06T12:00:46;12.70;99.90
6210;DHT22;3138;52.550;13.148;2023-04-06T12:03:13;12.80;99.90
6210;DHT22;3138;52.550;13.148;2023-04-06T12:05:40;12.90;99.90
6210;DHT22;3138;52.550;13.148;2023-04-06T12:08:07;12.90;99.90
6210;DHT22;3138;52.550;13.148;2023-04-06T12:10:36;12.30;99.90
6210;DHT22;3138;52.550;13.148;2023-04-06T12:13:04;13.00;99.90
6210;DHT22;3138;52.550;13.148;2023-04-06T12:15:31;12.90;99.90
6210;DHT22;3138;52.550;13.148;2023-04-06T12:17:58;12.60;99.90
6210;DHT22;3138;52.550;13.148;2023-04-06T12:20:24;13.10;99.90
6210;DHT22;3138;52.550;13.148;2023-04-06T12:22:51;13.20;99.90
6210;DHT22;3138;52.550;13.148;2023-04-06T12:25:19;13.30;99.90
6210;DHT22;3138;52.550;13.148;2023-04-06T12:27:47;13.20;99.90
6210;DHT22;3138;52.550;13.148;2023-04-06T12:30:15;13.10;99.90
6210;DHT22;3138;52.550;13.148;2023-04-06T12:32:42;12.60;99.90
6210;DHT22;3138;52.550;13.148;2023-04-06T12:35:09;12.60;99.90
6210;DHT22;3138;52.550;13.148;2023-04-06T12:37:37;12.60;99.90
6210;DHT22;3138;52.550;13.148;2023-04-06T12:40:05;12.80;99.90
6210;DHT22;3138;52.550;13.148;2023-04-06T12:42:32;12.40;99.90
6210;DHT22;3138;52.550;13.148;2023-04-06T12:45:01;12.80;99.90
6210;DHT22;3138;52.550;13.148;2023-04-06T12:47:28;12.90;99.90
6210;DHT22;3138;52.550;13.148;2023-04-06T12:49:55;13.00;99.90
6210;DHT22;3138;52.550;13.148;2023-04-06T12:52:22;12.80;99.90
6210;DHT22;3138;52.550;13.148;2023-04-06T12:54:49;12.10;99.90
6210;DHT22;3138;52.550;13.148;2023-04-06T12:57:16;12.50;99.90
6210;DHT22;3138;52.550;13.148;2023-04-06T12:59:44;12.80;99.90
6210;DHT22;3138;52.550;13.148;2023-04-06T13:02:13;12.70;99.90
6210;DHT22;3138;52.550;13.148;2023-04-06T13:04:40;12.90;99.90
6210;DHT22;3138;52.550;13.148;2023-04-06T13:07:07;12.50;99.90
6210;DHT22;3138;52.550;13.148;2023-04-06T13:09:34;12.50;99.90
6210;DHT22;3138;52.550;13.148;2023-04-06T13:12:01;12.80;99.90
6210;DHT22;3138;52.550;13.148;2023-04-06T13:14:28;13.10;99.90
6210;DHT22;3138;52.550;13.148;2023-04-06T13:16:55;12.90;99.90
6210;DHT22;3138;52.550;13.148;2023-04-06T13:19:23;12.90;99.90
6210;DHT22;3138;52.550;13.148;2023-04-06T13:21:50;12.90;99.90
6210;DHT22;3138;52.550;13.148;2023-04-06T13:24:17;12.90;99.90
6210;DHT22;3138;52.550;13.148;2023-04-06T13:26:45;13.00;99.90
6210;DHT22;3138;52.550;13.148;2023-04-06T13:29:12;12.80;99.90
6210;DHT22;3138;52.550;13.148;2023-04-06T13:31:39;12.90;99.90
6210;DHT22;3138;52.550;13.148;2023-04-06T13:34:06;13.00;99.90
6210;DHT22;3138;52.550;13.148;2023-04-06T13:36:34;12.80;99.90
6210;DHT22;3138;52.550;13.148;2023-04-06T13:39:01;12.50;99.90
6210;DHT22;3138;52.550;13.148;2023-04-06T13:41:28;12.70;99.90
6210;DHT22;3138;52.550;13.148;2023-04-06T13:43:55;12.90;99.90
6210;DHT22;3138;52.550;13.148;2023-04-06T13:46:23;12.70;99.90
6210;DHT22;3138;52.550;13.148;2023-04-06T13:48:50;12.20;99.90
6210;DHT22;3138;52.550;13.148;2023-04-06T13:51:17;12.20;99.90
6210;DHT22;3138;52.550;13.148;2023-04-06T13:53:45;12.10;99.90
6210;DHT22;3138;52.550;13.148;2023-04-06T13:56:12;12.40;99.90
6210;DHT22;3138;52.550;13.148;2023-04-06T13:58:39;12.00;99.90
6210;DHT22;3138;52.550;13.148;2023-04-06T14:01:07;12.40;99.90
6210;DHT22;3138;52.550;13.148;2023-04-06T14:03:35;12.50;99.90
6210;DHT22;3138;52.550;13.148;2023-04-06T14:06:10;12.40;99.90
6210;DHT22;3138;52.550;13.148;2023-04-06T14:08:37;12.40;99.90
6210;DHT22;3138;52.550;13.148;2023-04-06T14:11:06;12.30;99.90
6210;DHT22;3138;52.550;13.148;2023-04-06T14:13:33;12.20;99.90
6210;DHT22;3138;52.550;13.148;2023-04-06T14:16:00;12.30;99.90
6210;DHT22;3138;52.550;13.148;2023-04-06T14:18:27;12.20;99.90
6210;DHT22;3138;52.550;13.148;2023-04-06T14:20:56;12.10;99.90
6210;DHT22;3138;52.550;13.148;2023-04-06T14:23:24;12.00;99.90
6210;DHT22;3138;52.550;13.148;2023-04-06T14:25:55;12.10;99.90
6210;DHT22;3138;52.550;13.148;2023-04-06T14:28:28;11.90;99.90
6210;DHT22;3138;52.550;13.148;2023-04-06T14:30:55;11.80;99.90
6210;DHT22;3138;52.550;13.148;2023-04-06T14:33:22;11.80;99.90
6210;DHT22;3138;52.550;13.148;2023-04-06T14:35:48;11.70;99.90
6210;DHT22;3138;52.550;13.148;2023-04-06T14:38:15;11.90;99.90
6210;DHT22;3138;52.550;13.148;2023-04-06T14:40:42;12.20;99.90
6210;DHT22;3138;52.550;13.148;2023-04-06T14:43:09;12.20;99.90
6210;DHT22;3138;52.550;13.148;2023-04-06T14:45:37;12.10;99.90
6210;DHT22;3138;52.550;13.148;2023-04-06T14:48:05;12.00;99.90
6210;DHT22;3138;52.550;13.148;2023-04-06T14:50:32;12.10;99.90
6210;DHT22;3138;52.550;13.148;2023-04-06T14:52:59;12.30;99.90
6210;DHT22;3138;52.550;13.148;2023-04-06T14:55:27;12.20;99.90
6210;DHT22;3138;52.550;13.148;2023-04-06T14:57:53;12.10;99.90
6210;DHT22;3138;52.550;13.148;2023-04-06T15:00:20;12.00;99.90
6210;DHT22;3138;52.550;13.148;2023-04-06T15:02:49;11.70;99.90
6210;DHT22;3138;52.550;13.148;2023-04-06T15:05:16;11.70;99.90
6210;DHT22;3138;52.550;13.148;2023-04-06T15:07:42;11.70;99.90
6210;DHT22;3138;52.550;13.148;2023-04-06T15:10:10;11.70;99.90
6210;DHT22;3138;52.550;13.148;2023-04-06T15:12:37;11.80;99.90
6210;DHT22;3138;52.550;13.148;2023-04-06T15:15:05;11.80;99.90
6210;DHT22;3138;52.550;13.148;2023-04-06T15:17:32;11.80;99.90
6210;DHT22;3138;52.550;13.148;2023-04-06T15:20:00;11.60;99.90
6210;DHT22;3138;52.550;13.148;2023-04-06T15:22:27;11.50;99.90
6210;DHT22;3138;52.550;13.148;2023-04-06T15:24:54;11.60;99.90
6210;DHT22;3138;52.550;13.148;2023-04-06T15:27:20;11.60;99.90
6210;DHT22;3138;52.550;13.148;2023-04-06T15:29:47;11.40;99.90
6210;DHT22;3138;52.550;13.148;2023-04-06T15:32:14;11.30;99.90
6210;DHT22;3138;52.550;13.148;2023-04-06T15:34:41;11.20;99.90
6210;DHT22;3138;52.550;13.148;2023-04-06T15:37:09;11.30;99.90
6210;DHT22;3138;52.550;13.148;2023-04-06T15:39:36;11.30;99.90
6210;DHT22;3138;52.550;13.148;2023-04-06T15:42:03;11.40;99.90
6210;DHT22;3138;52.550;13.148;2023-04-06T15:44:30;11.30;99.90
6210;DHT22;3138;52.550;13.148;2023-04-06T15:46:57;11.30;99.90
6210;DHT22;3138;52.550;13.148;2023-04-06T15:49:24;11.10;99.90
6210;DHT22;3138;52.550;13.148;2023-04-06T15:51:51;11.00;99.90
6210;DHT22;3138;52.550;13.148;2023-04-06T15:54:19;11.00;99.90
6210;DHT22;3138;52.550;13.148;2023-04-06T15:56:48;11.10;99.90
6210;DHT22;3138;52.550;13.148;2023-04-06T15:59:15;11.00;99.90